sensor_id;sensor_type;location;lat;lon;timestamp;P1;durP1;ratioP1;P2;durP2;ratioP2
25581;SDS011;13462;50.764;4.332;2022-10-30T00:00:05;15.15;;;5.85;;
25581;SDS011;13462;50.764;4.332;2022-10-30T00:02:32;15.25;;;6.40;;
25581;SDS011;13462;50.764;4.332;2022-10-30T00:04:57;13.07;;;6.72;;
25581;SDS011;13462;50.764;4.332;2022-10-30T00:07:23;15.82;;;5.93;;
25581;SDS011;13462;50.764;4.332;2022-10-30T00:09:48;14.88;;;6.65;;
25581;SDS011;13462;50.764;4.332;2022-10-30T00:12:14;20.55;;;6.38;;
25581;SDS011;13462;50.764;4.332;2022-10-30T00:14:39;19.10;;;6.00;;
25581;SDS011;13462;50.764;4.332;2022-10-30T00:17:05;21.23;;;7.22;;
25581;SDS011;13462;50.764;4.332;2022-10-30T00:19:30;18.35;;;5.70;;
25581;SDS011;13462;50.764;4.332;2022-10-30T00:21:56;21.05;;;7.50;;
25581;SDS011;13462;50.764;4.332;2022-10-30T00:24:22;17.38;;;6.93;;
25581;SDS011;13462;50.764;4.332;2022-10-30T00:26:48;22.60;;;6.30;;
25581;SDS011;13462;50.764;4.332;2022-10-30T00:29:14;19.10;;;6.20;;
25581;SDS011;13462;50.764;4.332;2022-10-30T00:31:40;17.08;;;6.55;;
25581;SDS011;13462;50.764;4.332;2022-10-30T00:34:05;15.32;;;6.40;;
25581;SDS011;13462;50.764;4.332;2022-10-30T00:36:31;17.88;;;6.80;;
25581;SDS011;13462;50.764;4.332;2022-10-30T00:38:57;10.13;;;5.35;;
25581;SDS011;13462;50.764;4.332;2022-10-30T00:41:22;17.92;;;6.35;;
25581;SDS011;13462;50.764;4.332;2022-10-30T00:43:49;19.00;;;6.90;;
25581;SDS011;13462;50.764;4.332;2022-10-30T00:46:37;20.75;;;7.25;;
25581;SDS011;13462;50.764;4.332;2022-10-30T00:49:12;18.35;;;5.85;;
25581;SDS011;13462;50.764;4.332;2022-10-30T00:51:41;17.27;;;6.57;;
25581;SDS011;13462;50.764;4.332;2022-10-30T00:54:10;16.02;;;6.30;;
25581;SDS011;13462;50.764;4.332;2022-10-30T00:56:38;18.48;;;6.18;;
25581;SDS011;13462;50.764;4.332;2022-10-30T00:59:05;17.73;;;6.18;;
25581;SDS011;13462;50.764;4.332;2022-10-30T01:01:35;14.52;;;5.82;;
25581;SDS011;13462;50.764;4.332;2022-10-30T01:04:03;17.70;;;6.60;;
25581;SDS011;13462;50.764;4.332;2022-10-30T01:06:31;17.98;;;6.70;;
25581;SDS011;13462;50.764;4.332;2022-10-30T01:08:59;16.35;;;6.50;;
25581;SDS011;13462;50.764;4.332;2022-10-30T01:11:26;15.57;;;6.68;;
25581;SDS011;13462;50.764;4.332;2022-10-30T01:13:52;14.75;;;6.53;;
25581;SDS011;13462;50.764;4.332;2022-10-30T01:21:35;23.83;;;7.43;;
25581;SDS011;13462;50.764;4.332;2022-10-30T01:33:10;19.10;;;6.45;;
25581;SDS011;13462;50.764;4.332;2022-10-30T01:36:13;19.52;;;7.72;;
25581;SDS011;13462;50.764;4.332;2022-10-30T01:38:46;17.15;;;6.93;;
25581;SDS011;13462;50.764;4.332;2022-10-30T01:41:17;15.85;;;6.75;;
25581;SDS011;13462;50.764;4.332;2022-10-30T01:43:43;11.88;;;6.22;;
25581;SDS011;13462;50.764;4.332;2022-10-30T01:46:26;20.00;;;6.45;;
25581;SDS011;13462;50.764;4.332;2022-10-30T01:54:36;20.08;;;7.72;;
25581;SDS011;13462;50.764;4.332;2022-10-30T01:57:43;18.42;;;8.15;;
25581;SDS011;13462;50.764;4.332;2022-10-30T02:00:07;15.68;;;7.13;;
25581;SDS011;13462;50.764;4.332;2022-10-30T02:02:35;20.55;;;7.45;;
25581;SDS011;13462;50.764;4.332;2022-10-30T02:05:01;14.95;;;7.32;;
25581;SDS011;13462;50.764;4.332;2022-10-30T02:07:27;18.33;;;7.65;;
25581;SDS011;13462;50.764;4.332;2022-10-30T02:09:52;15.30;;;7.60;;
25581;SDS011;13462;50.764;4.332;2022-10-30T02:12:19;19.55;;;7.80;;
25581;SDS011;13462;50.764;4.332;2022-10-30T02:14:47;15.63;;;7.45;;
25581;SDS011;13462;50.764;4.332;2022-10-30T02:17:16;16.05;;;7.50;;
25581;SDS011;13462;50.764;4.332;2022-10-30T02:19:42;17.83;;;7.82;;
25581;SDS011;13462;50.764;4.332;2022-10-30T02:22:08;18.13;;;7.35;;
25581;SDS011;13462;50.764;4.332;2022-10-30T02:24:34;20.98;;;7.15;;
25581;SDS011;13462;50.764;4.332;2022-10-30T02:27:00;15.63;;;8.23;;
25581;SDS011;13462;50.764;4.332;2022-10-30T02:29:25;18.58;;;8.55;;
25581;SDS011;13462;50.764;4.332;2022-10-30T02:31:51;14.52;;;7.43;;
25581;SDS011;13462;50.764;4.332;2022-10-30T02:34:17;19.67;;;8.27;;
25581;SDS011;13462;50.764;4.332;2022-10-30T02:36:42;18.02;;;8.82;;
25581;SDS011;13462;50.764;4.332;2022-10-30T02:39:08;21.88;;;8.57;;
25581;SDS011;13462;50.764;4.332;2022-10-30T02:41:33;20.00;;;8.00;;
25581;SDS011;13462;50.764;4.332;2022-10-30T02:43:59;18.52;;;7.35;;
25581;SDS011;13462;50.764;4.332;2022-10-30T02:46:25;15.82;;;7.88;;
25581;SDS011;13462;50.764;4.332;2022-10-30T02:48:51;20.20;;;8.32;;
25581;SDS011;13462;50.764;4.332;2022-10-30T02:51:16;19.75;;;8.10;;
25581;SDS011;13462;50.764;4.332;2022-10-30T02:53:42;16.17;;;8.02;;
25581;SDS011;13462;50.764;4.332;2022-10-30T02:56:09;22.63;;;8.63;;
25581;SDS011;13462;50.764;4.332;2022-10-30T02:58:36;14.23;;;7.25;;
25581;SDS011;13462;50.764;4.332;2022-10-30T03:01:05;14.32;;;8.00;;
25581;SDS011;13462;50.764;4.332;2022-10-30T03:03:32;23.35;;;8.45;;
25581;SDS011;13462;50.764;4.332;2022-10-30T03:06:01;17.98;;;8.02;;
25581;SDS011;13462;50.764;4.332;2022-10-30T03:08:28;18.70;;;8.57;;
25581;SDS011;13462;50.764;4.332;2022-10-30T03:10:58;20.75;;;8.50;;
25581;SDS011;13462;50.764;4.332;2022-10-30T03:13:35;17.55;;;8.10;;
25581;SDS011;13462;50.764;4.332;2022-10-30T03:16:02;22.17;;;8.45;;
25581;SDS011;13462;50.764;4.332;2022-10-30T03:18:29;17.67;;;8.07;;
25581;SDS011;13462;50.764;4.332;2022-10-30T03:20:56;18.05;;;7.72;;
25581;SDS011;13462;50.764;4.332;2022-10-30T03:23:26;21.90;;;8.82;;
25581;SDS011;13462;50.764;4.332;2022-10-30T03:25:55;18.85;;;8.57;;
25581;SDS011;13462;50.764;4.332;2022-10-30T03:28:23;17.23;;;8.43;;
25581;SDS011;13462;50.764;4.332;2022-10-30T03:30:50;20.85;;;8.10;;
25581;SDS011;13462;50.764;4.332;2022-10-30T03:33:21;18.88;;;8.10;;
25581;SDS011;13462;50.764;4.332;2022-10-30T03:35:47;16.45;;;7.60;;
25581;SDS011;13462;50.764;4.332;2022-10-30T03:38:13;18.33;;;8.40;;
25581;SDS011;13462;50.764;4.332;2022-10-30T03:40:38;13.98;;;7.13;;
25581;SDS011;13462;50.764;4.332;2022-10-30T03:43:05;15.13;;;8.18;;
25581;SDS011;13462;50.764;4.332;2022-10-30T03:45:31;15.10;;;7.80;;
25581;SDS011;13462;50.764;4.332;2022-10-30T03:48:01;21.88;;;8.93;;
25581;SDS011;13462;50.764;4.332;2022-10-30T03:50:27;25.23;;;9.70;;
25581;SDS011;13462;50.764;4.332;2022-10-30T03:52:53;16.15;;;7.60;;
25581;SDS011;13462;50.764;4.332;2022-10-30T03:55:21;16.73;;;8.77;;
25581;SDS011;13462;50.764;4.332;2022-10-30T03:57:47;19.63;;;9.23;;
25581;SDS011;13462;50.764;4.332;2022-10-30T04:00:12;23.10;;;9.20;;
25581;SDS011;13462;50.764;4.332;2022-10-30T04:02:38;17.52;;;9.23;;
25581;SDS011;13462;50.764;4.332;2022-10-30T04:05:08;20.13;;;8.82;;
25581;SDS011;13462;50.764;4.332;2022-10-30T04:07:34;22.63;;;9.15;;
25581;SDS011;13462;50.764;4.332;2022-10-30T04:09:59;19.95;;;9.98;;
25581;SDS011;13462;50.764;4.332;2022-10-30T04:12:25;18.33;;;9.35;;
25581;SDS011;13462;50.764;4.332;2022-10-30T04:14:50;20.10;;;9.50;;
25581;SDS011;13462;50.764;4.332;2022-10-30T04:17:17;22.10;;;9.23;;
25581;SDS011;13462;50.764;4.332;2022-10-30T04:19:43;20.17;;;10.23;;
25581;SDS011;13462;50.764;4.332;2022-10-30T04:22:08;21.83;;;9.90;;
25581;SDS011;13462;50.764;4.332;2022-10-30T04:24:34;24.13;;;10.43;;
25581;SDS011;13462;50.764;4.332;2022-10-30T04:26:59;20.55;;;9.43;;
25581;SDS011;13462;50.764;4.332;2022-10-30T04:29:25;22.35;;;9.60;;
25581;SDS011;13462;50.764;4.332;2022-10-30T04:31:51;24.52;;;9.48;;
25581;SDS011;13462;50.764;4.332;2022-10-30T04:34:16;26.55;;;9.98;;
25581;SDS011;13462;50.764;4.332;2022-10-30T04:36:42;22.55;;;9.52;;
25581;SDS011;13462;50.764;4.332;2022-10-30T04:39:08;23.25;;;9.82;;
25581;SDS011;13462;50.764;4.332;2022-10-30T04:41:33;19.88;;;10.07;;
25581;SDS011;13462;50.764;4.332;2022-10-30T04:43:59;18.60;;;9.63;;
25581;SDS011;13462;50.764;4.332;2022-10-30T04:46:24;22.25;;;9.43;;
25581;SDS011;13462;50.764;4.332;2022-10-30T04:48:50;16.25;;;9.65;;
25581;SDS011;13462;50.764;4.332;2022-10-30T04:51:17;17.52;;;9.55;;
25581;SDS011;13462;50.764;4.332;2022-10-30T04:53:42;20.60;;;9.55;;
25581;SDS011;13462;50.764;4.332;2022-10-30T04:56:08;18.40;;;9.40;;
25581;SDS011;13462;50.764;4.332;2022-10-30T04:58:33;20.45;;;10.65;;
25581;SDS011;13462;50.764;4.332;2022-10-30T05:01:03;18.88;;;9.25;;
25581;SDS011;13462;50.764;4.332;2022-10-30T05:03:29;17.25;;;9.45;;
25581;SDS011;13462;50.764;4.332;2022-10-30T05:06:05;24.80;;;9.43;;
25581;SDS011;13462;50.764;4.332;2022-10-30T05:08:37;20.83;;;9.57;;
25581;SDS011;13462;50.764;4.332;2022-10-30T05:11:03;17.45;;;9.25;;
25581;SDS011;13462;50.764;4.332;2022-10-30T05:13:29;20.13;;;9.70;;
25581;SDS011;13462;50.764;4.332;2022-10-30T05:15:55;18.63;;;10.48;;
25581;SDS011;13462;50.764;4.332;2022-10-30T05:18:20;16.67;;;8.05;;
25581;SDS011;13462;50.764;4.332;2022-10-30T05:20:46;17.02;;;9.65;;
25581;SDS011;13462;50.764;4.332;2022-10-30T05:23:12;17.45;;;8.52;;
25581;SDS011;13462;50.764;4.332;2022-10-30T05:25:37;18.27;;;9.38;;
25581;SDS011;13462;50.764;4.332;2022-10-30T05:28:04;16.15;;;8.82;;
25581;SDS011;13462;50.764;4.332;2022-10-30T05:30:31;21.88;;;10.95;;
25581;SDS011;13462;50.764;4.332;2022-10-30T05:32:58;26.48;;;10.15;;
25581;SDS011;13462;50.764;4.332;2022-10-30T05:35:28;16.85;;;9.75;;
25581;SDS011;13462;50.764;4.332;2022-10-30T05:37:56;21.08;;;10.40;;
25581;SDS011;13462;50.764;4.332;2022-10-30T05:40:22;20.88;;;9.98;;
25581;SDS011;13462;50.764;4.332;2022-10-30T05:42:48;27.40;;;11.45;;
25581;SDS011;13462;50.764;4.332;2022-10-30T05:45:14;23.83;;;10.68;;
25581;SDS011;13462;50.764;4.332;2022-10-30T05:47:40;29.75;;;10.95;;
25581;SDS011;13462;50.764;4.332;2022-10-30T05:50:06;26.55;;;12.20;;
25581;SDS011;13462;50.764;4.332;2022-10-30T05:52:32;26.55;;;12.68;;
25581;SDS011;13462;50.764;4.332;2022-10-30T05:54:58;23.63;;;12.90;;
25581;SDS011;13462;50.764;4.332;2022-10-30T05:57:26;26.65;;;12.75;;
25581;SDS011;13462;50.764;4.332;2022-10-30T05:59:52;32.58;;;13.70;;
25581;SDS011;13462;50.764;4.332;2022-10-30T06:02:18;29.70;;;13.88;;
25581;SDS011;13462;50.764;4.332;2022-10-30T06:04:43;30.08;;;13.70;;
25581;SDS011;13462;50.764;4.332;2022-10-30T06:07:09;30.88;;;13.43;;
25581;SDS011;13462;50.764;4.332;2022-10-30T06:09:35;32.85;;;13.70;;
25581;SDS011;13462;50.764;4.332;2022-10-30T06:12:01;27.38;;;13.15;;
25581;SDS011;13462;50.764;4.332;2022-10-30T06:14:26;34.33;;;13.48;;
25581;SDS011;13462;50.764;4.332;2022-10-30T06:16:52;27.85;;;12.55;;
25581;SDS011;13462;50.764;4.332;2022-10-30T06:19:18;27.55;;;11.32;;
25581;SDS011;13462;50.764;4.332;2022-10-30T06:21:43;27.48;;;12.05;;
25581;SDS011;13462;50.764;4.332;2022-10-30T06:24:09;28.05;;;12.10;;
25581;SDS011;13462;50.764;4.332;2022-10-30T06:26:34;26.27;;;11.95;;
25581;SDS011;13462;50.764;4.332;2022-10-30T06:29:00;28.63;;;11.95;;
25581;SDS011;13462;50.764;4.332;2022-10-30T06:31:25;28.40;;;11.27;;
25581;SDS011;13462;50.764;4.332;2022-10-30T06:33:51;26.48;;;12.18;;
25581;SDS011;13462;50.764;4.332;2022-10-30T06:36:16;29.55;;;10.98;;
25581;SDS011;13462;50.764;4.332;2022-10-30T06:38:42;25.65;;;11.35;;
25581;SDS011;13462;50.764;4.332;2022-10-30T06:41:08;23.05;;;10.40;;
25581;SDS011;13462;50.764;4.332;2022-10-30T06:43:34;22.15;;;10.85;;
25581;SDS011;13462;50.764;4.332;2022-10-30T06:45:59;24.42;;;10.20;;
25581;SDS011;13462;50.764;4.332;2022-10-30T06:48:25;27.17;;;10.23;;
25581;SDS011;13462;50.764;4.332;2022-10-30T06:50:54;26.02;;;10.07;;
25581;SDS011;13462;50.764;4.332;2022-10-30T06:53:21;21.77;;;10.70;;
25581;SDS011;13462;50.764;4.332;2022-10-30T06:55:54;25.02;;;10.75;;
25581;SDS011;13462;50.764;4.332;2022-10-30T06:58:20;19.60;;;9.70;;
25581;SDS011;13462;50.764;4.332;2022-10-30T07:00:45;26.30;;;10.95;;
25581;SDS011;13462;50.764;4.332;2022-10-30T07:03:11;25.15;;;10.40;;
25581;SDS011;13462;50.764;4.332;2022-10-30T07:05:36;24.40;;;10.68;;
25581;SDS011;13462;50.764;4.332;2022-10-30T07:08:02;18.02;;;9.98;;
25581;SDS011;13462;50.764;4.332;2022-10-30T07:10:28;20.67;;;9.77;;
25581;SDS011;13462;50.764;4.332;2022-10-30T07:12:54;20.10;;;9.55;;
25581;SDS011;13462;50.764;4.332;2022-10-30T07:15:20;22.30;;;9.65;;
25581;SDS011;13462;50.764;4.332;2022-10-30T07:17:56;21.85;;;10.15;;
25581;SDS011;13462;50.764;4.332;2022-10-30T07:20:23;20.40;;;10.07;;
25581;SDS011;13462;50.764;4.332;2022-10-30T07:22:49;19.38;;;10.05;;
25581;SDS011;13462;50.764;4.332;2022-10-30T07:25:15;23.77;;;9.05;;
25581;SDS011;13462;50.764;4.332;2022-10-30T07:27:42;18.58;;;9.07;;
25581;SDS011;13462;50.764;4.332;2022-10-30T07:30:09;20.15;;;10.00;;
25581;SDS011;13462;50.764;4.332;2022-10-30T07:32:38;23.85;;;10.65;;
25581;SDS011;13462;50.764;4.332;2022-10-30T07:35:05;23.58;;;9.20;;
25581;SDS011;13462;50.764;4.332;2022-10-30T07:37:30;19.65;;;9.27;;
25581;SDS011;13462;50.764;4.332;2022-10-30T07:39:56;20.17;;;8.82;;
25581;SDS011;13462;50.764;4.332;2022-10-30T07:42:22;20.75;;;8.48;;
25581;SDS011;13462;50.764;4.332;2022-10-30T07:44:47;15.82;;;9.45;;
25581;SDS011;13462;50.764;4.332;2022-10-30T07:47:13;19.88;;;8.15;;
25581;SDS011;13462;50.764;4.332;2022-10-30T07:49:39;23.40;;;9.55;;
25581;SDS011;13462;50.764;4.332;2022-10-30T07:52:04;23.10;;;9.40;;
25581;SDS011;13462;50.764;4.332;2022-10-30T07:54:30;14.82;;;8.45;;
25581;SDS011;13462;50.764;4.332;2022-10-30T07:56:55;21.15;;;8.95;;
25581;SDS011;13462;50.764;4.332;2022-10-30T07:59:22;15.45;;;8.50;;
25581;SDS011;13462;50.764;4.332;2022-10-30T08:01:48;15.13;;;8.38;;
25581;SDS011;13462;50.764;4.332;2022-10-30T08:04:14;14.73;;;7.95;;
25581;SDS011;13462;50.764;4.332;2022-10-30T08:06:40;19.00;;;7.70;;
25581;SDS011;13462;50.764;4.332;2022-10-30T08:09:06;20.30;;;8.70;;
25581;SDS011;13462;50.764;4.332;2022-10-30T08:11:31;20.10;;;8.25;;
25581;SDS011;13462;50.764;4.332;2022-10-30T08:13:57;16.85;;;8.85;;
25581;SDS011;13462;50.764;4.332;2022-10-30T08:16:23;11.35;;;8.07;;
25581;SDS011;13462;50.764;4.332;2022-10-30T08:18:49;19.63;;;8.93;;
25581;SDS011;13462;50.764;4.332;2022-10-30T08:21:14;17.35;;;8.23;;
25581;SDS011;13462;50.764;4.332;2022-10-30T08:23:40;17.95;;;8.43;;
25581;SDS011;13462;50.764;4.332;2022-10-30T08:26:06;15.80;;;8.60;;
25581;SDS011;13462;50.764;4.332;2022-10-30T08:28:31;18.17;;;8.90;;
25581;SDS011;13462;50.764;4.332;2022-10-30T08:30:57;19.40;;;8.50;;
25581;SDS011;13462;50.764;4.332;2022-10-30T08:33:23;25.67;;;9.25;;
25581;SDS011;13462;50.764;4.332;2022-10-30T08:35:50;17.35;;;8.30;;
25581;SDS011;13462;50.764;4.332;2022-10-30T08:38:23;20.95;;;9.60;;
25581;SDS011;13462;50.764;4.332;2022-10-30T08:40:49;16.00;;;7.80;;
25581;SDS011;13462;50.764;4.332;2022-10-30T08:43:15;15.98;;;7.65;;
25581;SDS011;13462;50.764;4.332;2022-10-30T08:45:41;20.25;;;8.60;;
25581;SDS011;13462;50.764;4.332;2022-10-30T08:48:08;21.15;;;7.78;;
25581;SDS011;13462;50.764;4.332;2022-10-30T08:50:35;18.85;;;7.90;;
25581;SDS011;13462;50.764;4.332;2022-10-30T08:53:01;16.17;;;7.95;;
25581;SDS011;13462;50.764;4.332;2022-10-30T08:55:29;20.55;;;8.95;;
25581;SDS011;13462;50.764;4.332;2022-10-30T08:57:55;16.73;;;8.10;;
25581;SDS011;13462;50.764;4.332;2022-10-30T09:00:21;17.30;;;8.07;;
25581;SDS011;13462;50.764;4.332;2022-10-30T09:02:46;16.15;;;7.85;;
25581;SDS011;13462;50.764;4.332;2022-10-30T09:05:12;17.25;;;7.93;;
25581;SDS011;13462;50.764;4.332;2022-10-30T09:07:37;19.80;;;8.32;;
25581;SDS011;13462;50.764;4.332;2022-10-30T09:10:03;16.50;;;7.63;;
25581;SDS011;13462;50.764;4.332;2022-10-30T09:12:30;19.30;;;8.43;;
25581;SDS011;13462;50.764;4.332;2022-10-30T09:14:55;18.77;;;8.05;;
25581;SDS011;13462;50.764;4.332;2022-10-30T09:17:21;22.75;;;8.73;;
25581;SDS011;13462;50.764;4.332;2022-10-30T09:19:46;17.52;;;7.85;;
25581;SDS011;13462;50.764;4.332;2022-10-30T09:22:12;19.17;;;7.88;;
25581;SDS011;13462;50.764;4.332;2022-10-30T09:24:37;21.90;;;7.38;;
25581;SDS011;13462;50.764;4.332;2022-10-30T09:27:04;20.17;;;7.35;;
25581;SDS011;13462;50.764;4.332;2022-10-30T09:29:30;15.43;;;6.68;;
25581;SDS011;13462;50.764;4.332;2022-10-30T09:31:56;16.85;;;7.88;;
25581;SDS011;13462;50.764;4.332;2022-10-30T09:34:23;17.55;;;7.45;;
25581;SDS011;13462;50.764;4.332;2022-10-30T09:36:48;15.00;;;7.45;;
25581;SDS011;13462;50.764;4.332;2022-10-30T09:39:14;11.68;;;6.88;;
25581;SDS011;13462;50.764;4.332;2022-10-30T09:41:44;16.02;;;8.32;;
25581;SDS011;13462;50.764;4.332;2022-10-30T09:50:02;16.25;;;7.80;;
25581;SDS011;13462;50.764;4.332;2022-10-30T09:52:51;14.68;;;7.50;;
25581;SDS011;13462;50.764;4.332;2022-10-30T09:55:29;15.82;;;6.80;;
25581;SDS011;13462;50.764;4.332;2022-10-30T10:01:01;17.17;;;7.00;;
25581;SDS011;13462;50.764;4.332;2022-10-30T10:06:26;18.77;;;7.55;;
25581;SDS011;13462;50.764;4.332;2022-10-30T10:09:00;13.35;;;7.35;;
25581;SDS011;13462;50.764;4.332;2022-10-30T10:11:34;12.70;;;6.90;;
25581;SDS011;13462;50.764;4.332;2022-10-30T10:14:03;16.67;;;7.35;;
25581;SDS011;13462;50.764;4.332;2022-10-30T10:16:33;14.25;;;6.95;;
25581;SDS011;13462;50.764;4.332;2022-10-30T10:21:46;21.75;;;7.38;;
25581;SDS011;13462;50.764;4.332;2022-10-30T10:24:20;14.43;;;6.80;;
25581;SDS011;13462;50.764;4.332;2022-10-30T10:26:49;18.45;;;8.10;;
25581;SDS011;13462;50.764;4.332;2022-10-30T10:29:32;17.08;;;7.05;;
25581;SDS011;13462;50.764;4.332;2022-10-30T10:37:46;17.50;;;6.57;;
25581;SDS011;13462;50.764;4.332;2022-10-30T10:45:58;14.63;;;6.93;;
25581;SDS011;13462;50.764;4.332;2022-10-30T10:49:00;17.98;;;6.97;;
25581;SDS011;13462;50.764;4.332;2022-10-30T10:51:51;15.95;;;6.95;;
25581;SDS011;13462;50.764;4.332;2022-10-30T10:54:24;12.05;;;6.70;;
25581;SDS011;13462;50.764;4.332;2022-10-30T10:56:55;17.63;;;6.93;;
25581;SDS011;13462;50.764;4.332;2022-10-30T10:59:31;17.50;;;7.20;;
25581;SDS011;13462;50.764;4.332;2022-10-30T11:02:23;21.75;;;7.60;;
25581;SDS011;13462;50.764;4.332;2022-10-30T11:05:14;18.15;;;7.25;;
25581;SDS011;13462;50.764;4.332;2022-10-30T11:07:47;22.45;;;7.78;;
25581;SDS011;13462;50.764;4.332;2022-10-30T11:10:15;16.65;;;8.02;;
25581;SDS011;13462;50.764;4.332;2022-10-30T11:12:42;21.80;;;9.50;;
25581;SDS011;13462;50.764;4.332;2022-10-30T11:20:36;19.52;;;9.25;;
25581;SDS011;13462;50.764;4.332;2022-10-30T11:23:30;18.75;;;8.45;;
25581;SDS011;13462;50.764;4.332;2022-10-30T11:25:57;15.77;;;8.32;;
25581;SDS011;13462;50.764;4.332;2022-10-30T11:28:33;16.20;;;9.15;;
25581;SDS011;13462;50.764;4.332;2022-10-30T11:31:22;16.73;;;7.82;;
25581;SDS011;13462;50.764;4.332;2022-10-30T11:33:58;25.65;;;8.65;;
25581;SDS011;13462;50.764;4.332;2022-10-30T11:36:47;19.77;;;9.27;;
25581;SDS011;13462;50.764;4.332;2022-10-30T11:44:35;18.30;;;7.45;;
25581;SDS011;13462;50.764;4.332;2022-10-30T11:47:02;17.70;;;7.60;;
25581;SDS011;13462;50.764;4.332;2022-10-30T11:52:02;17.67;;;7.25;;
25581;SDS011;13462;50.764;4.332;2022-10-30T11:54:33;16.88;;;7.80;;
25581;SDS011;13462;50.764;4.332;2022-10-30T11:57:01;18.13;;;8.20;;
25581;SDS011;13462;50.764;4.332;2022-10-30T11:59:27;18.35;;;8.02;;
25581;SDS011;13462;50.764;4.332;2022-10-30T12:01:56;19.60;;;8.40;;
25581;SDS011;13462;50.764;4.332;2022-10-30T12:04:24;17.23;;;7.75;;
25581;SDS011;13462;50.764;4.332;2022-10-30T12:09:35;16.90;;;7.57;;
25581;SDS011;13462;50.764;4.332;2022-10-30T12:12:09;13.00;;;6.75;;
25581;SDS011;13462;50.764;4.332;2022-10-30T12:14:36;15.80;;;7.40;;
25581;SDS011;13462;50.764;4.332;2022-10-30T12:17:02;18.08;;;6.70;;
25581;SDS011;13462;50.764;4.332;2022-10-30T12:19:28;14.77;;;6.65;;
25581;SDS011;13462;50.764;4.332;2022-10-30T12:21:56;17.00;;;6.68;;
25581;SDS011;13462;50.764;4.332;2022-10-30T12:24:26;21.65;;;6.90;;
25581;SDS011;13462;50.764;4.332;2022-10-30T12:26:55;13.40;;;5.97;;
25581;SDS011;13462;50.764;4.332;2022-10-30T12:29:25;15.13;;;6.85;;
25581;SDS011;13462;50.764;4.332;2022-10-30T12:32:03;15.38;;;6.55;;
25581;SDS011;13462;50.764;4.332;2022-10-30T12:34:39;15.27;;;6.13;;
25581;SDS011;13462;50.764;4.332;2022-10-30T12:37:27;18.95;;;5.97;;
25581;SDS011;13462;50.764;4.332;2022-10-30T12:42:28;15.82;;;5.40;;
25581;SDS011;13462;50.764;4.332;2022-10-30T12:50:18;12.95;;;6.15;;
25581;SDS011;13462;50.764;4.332;2022-10-30T12:55:30;13.02;;;5.80;;
25581;SDS011;13462;50.764;4.332;2022-10-30T13:00:59;14.13;;;5.72;;
25581;SDS011;13462;50.764;4.332;2022-10-30T13:03:34;12.45;;;6.18;;
25581;SDS011;13462;50.764;4.332;2022-10-30T13:06:09;15.38;;;5.90;;
25581;SDS011;13462;50.764;4.332;2022-10-30T13:14:12;19.92;;;6.30;;
25581;SDS011;13462;50.764;4.332;2022-10-30T13:16:41;17.77;;;6.07;;
25581;SDS011;13462;50.764;4.332;2022-10-30T13:19:10;11.85;;;5.22;;
25581;SDS011;13462;50.764;4.332;2022-10-30T13:24:37;18.77;;;6.30;;
25581;SDS011;13462;50.764;4.332;2022-10-30T13:27:24;13.90;;;5.35;;
25581;SDS011;13462;50.764;4.332;2022-10-30T13:30:11;14.30;;;5.57;;
25581;SDS011;13462;50.764;4.332;2022-10-30T13:38:31;13.18;;;5.60;;
25581;SDS011;13462;50.764;4.332;2022-10-30T13:41:12;13.23;;;5.53;;
25581;SDS011;13462;50.764;4.332;2022-10-30T13:47:03;16.50;;;5.40;;
25581;SDS011;13462;50.764;4.332;2022-10-30T13:52:15;11.85;;;5.70;;
25581;SDS011;13462;50.764;4.332;2022-10-30T13:55:02;11.15;;;5.82;;
25581;SDS011;13462;50.764;4.332;2022-10-30T14:00:19;17.88;;;5.50;;
25581;SDS011;13462;50.764;4.332;2022-10-30T14:11:10;16.75;;;6.18;;
25581;SDS011;13462;50.764;4.332;2022-10-30T14:13:53;16.38;;;6.43;;
25581;SDS011;13462;50.764;4.332;2022-10-30T14:16:32;13.23;;;6.20;;
25581;SDS011;13462;50.764;4.332;2022-10-30T14:19:04;11.48;;;5.93;;
25581;SDS011;13462;50.764;4.332;2022-10-30T14:24:20;14.77;;;6.53;;
25581;SDS011;13462;50.764;4.332;2022-10-30T14:31:58;17.20;;;6.32;;
25581;SDS011;13462;50.764;4.332;2022-10-30T14:37:13;15.00;;;6.60;;
25581;SDS011;13462;50.764;4.332;2022-10-30T14:39:41;18.17;;;7.82;;
25581;SDS011;13462;50.764;4.332;2022-10-30T14:58:28;19.48;;;9.70;;
25581;SDS011;13462;50.764;4.332;2022-10-30T15:08:52;22.00;;;10.88;;
25581;SDS011;13462;50.764;4.332;2022-10-30T15:14:28;25.35;;;11.32;;
25581;SDS011;13462;50.764;4.332;2022-10-30T15:16:59;20.88;;;10.32;;
25581;SDS011;13462;50.764;4.332;2022-10-30T15:19:25;25.13;;;11.35;;
25581;SDS011;13462;50.764;4.332;2022-10-30T15:21:53;22.55;;;11.40;;
25581;SDS011;13462;50.764;4.332;2022-10-30T15:24:23;25.15;;;11.27;;
25581;SDS011;13462;50.764;4.332;2022-10-30T15:29:18;27.35;;;12.10;;
25581;SDS011;13462;50.764;4.332;2022-10-30T15:32:17;26.98;;;12.38;;
25581;SDS011;13462;50.764;4.332;2022-10-30T15:34:57;19.20;;;12.45;;
25581;SDS011;13462;50.764;4.332;2022-10-30T15:37:25;27.00;;;13.35;;
25581;SDS011;13462;50.764;4.332;2022-10-30T15:40:10;24.05;;;13.23;;
25581;SDS011;13462;50.764;4.332;2022-10-30T15:42:44;24.65;;;14.07;;
25581;SDS011;13462;50.764;4.332;2022-10-30T15:45:18;20.52;;;13.10;;
25581;SDS011;13462;50.764;4.332;2022-10-30T15:47:47;25.50;;;13.63;;
25581;SDS011;13462;50.764;4.332;2022-10-30T15:50:18;27.25;;;14.75;;
25581;SDS011;13462;50.764;4.332;2022-10-30T15:52:45;27.48;;;14.55;;
25581;SDS011;13462;50.764;4.332;2022-10-30T15:55:15;21.23;;;13.43;;
25581;SDS011;13462;50.764;4.332;2022-10-30T15:57:49;23.63;;;14.95;;
25581;SDS011;13462;50.764;4.332;2022-10-30T16:00:23;26.27;;;14.48;;
25581;SDS011;13462;50.764;4.332;2022-10-30T16:05:30;29.70;;;15.45;;
25581;SDS011;13462;50.764;4.332;2022-10-30T16:07:58;32.38;;;15.27;;
25581;SDS011;13462;50.764;4.332;2022-10-30T16:10:26;28.35;;;14.07;;
25581;SDS011;13462;50.764;4.332;2022-10-30T16:12:58;21.35;;;13.13;;
25581;SDS011;13462;50.764;4.332;2022-10-30T16:15:26;25.95;;;15.00;;
25581;SDS011;13462;50.764;4.332;2022-10-30T16:18:06;31.63;;;14.80;;
25581;SDS011;13462;50.764;4.332;2022-10-30T16:20:39;25.52;;;14.27;;
25581;SDS011;13462;50.764;4.332;2022-10-30T16:23:06;25.33;;;13.90;;
25581;SDS011;13462;50.764;4.332;2022-10-30T16:25:32;30.33;;;13.35;;
25581;SDS011;13462;50.764;4.332;2022-10-30T16:28:01;27.08;;;13.02;;
25581;SDS011;13462;50.764;4.332;2022-10-30T16:30:28;31.80;;;14.55;;
25581;SDS011;13462;50.764;4.332;2022-10-30T16:32:56;30.27;;;14.07;;
25581;SDS011;13462;50.764;4.332;2022-10-30T16:35:23;26.00;;;12.65;;
25581;SDS011;13462;50.764;4.332;2022-10-30T16:37:49;24.55;;;14.43;;
25581;SDS011;13462;50.764;4.332;2022-10-30T16:40:16;27.10;;;15.48;;
25581;SDS011;13462;50.764;4.332;2022-10-30T16:42:55;32.10;;;13.05;;
25581;SDS011;13462;50.764;4.332;2022-10-30T16:47:50;23.40;;;14.57;;
25581;SDS011;13462;50.764;4.332;2022-10-30T16:50:22;34.85;;;15.15;;
25581;SDS011;13462;50.764;4.332;2022-10-30T16:53:06;28.50;;;14.18;;
25581;SDS011;13462;50.764;4.332;2022-10-30T16:55:35;30.20;;;13.43;;
25581;SDS011;13462;50.764;4.332;2022-10-30T16:58:02;31.33;;;14.75;;
25581;SDS011;13462;50.764;4.332;2022-10-30T17:00:28;24.85;;;15.40;;
25581;SDS011;13462;50.764;4.332;2022-10-30T17:02:55;21.52;;;13.73;;
25581;SDS011;13462;50.764;4.332;2022-10-30T17:05:24;24.85;;;13.65;;
25581;SDS011;13462;50.764;4.332;2022-10-30T17:07:57;27.70;;;14.85;;
25581;SDS011;13462;50.764;4.332;2022-10-30T17:10:35;24.02;;;14.82;;
25581;SDS011;13462;50.764;4.332;2022-10-30T17:15:57;29.30;;;16.02;;